createdAt,value
2019-06-08T00:04:50.686Z,100261.60
2019-06-08T00:09:52.761Z,100261.34
2019-06-08T00:14:54.805Z,100271.66
2019-06-08T00:19:56.903Z,100264.41
2019-06-08T00:24:59.150Z,100302.93
2019-06-08T00:30:01.449Z,100308.81
2019-06-08T00:35:04.191Z,100327.52
2019-06-08T00:40:06.668Z,100339.86
2019-06-08T00:45:08.860Z,100341.19
2019-06-08T00:50:11.484Z,100332.13
2019-06-08T00:55:13.549Z,100331.21
2019-06-08T01:00:16.312Z,100358.41
2019-06-08T01:05:19.761Z,100362.95
2019-06-08T01:10:23.457Z,100365.53
2019-06-08T01:15:32.227Z,100341.67
2019-06-08T01:20:29.858Z,100384.54
2019-06-08T01:25:31.916Z,100415.18
2019-06-08T01:30:33.951Z,100402.81
2019-06-08T01:35:36.006Z,100394.77
2019-06-08T01:40:38.091Z,100403.13
2019-06-08T01:45:40.166Z,100419.87
2019-06-08T01:50:42.222Z,100452.42
2019-06-08T01:55:44.330Z,100471.53
2019-06-08T02:00:46.369Z,100470.22
2019-06-08T02:05:48.420Z,100433.20
2019-06-08T02:10:50.569Z,100412.46
2019-06-08T02:15:52.648Z,100399.97
2019-06-08T02:20:54.722Z,100406.04
2019-06-08T02:25:56.792Z,100413.14
2019-06-08T02:30:58.899Z,100428.70
2019-06-08T02:36:00.930Z,100427.14
2019-06-08T02:41:02.988Z,100411.20
2019-06-08T02:46:05.034Z,100418.94
2019-06-08T02:51:07.245Z,100393.02
2019-06-08T02:56:12.524Z,100406.84
2019-06-08T03:01:18.252Z,100421.02
2019-06-08T03:06:20.698Z,100430.98
2019-06-08T03:11:25.068Z,100435.91
2019-06-08T03:16:27.110Z,100437.20
2019-06-08T03:21:29.162Z,100432.84
2019-06-08T03:26:32.094Z,100442.41
2019-06-08T03:31:39.008Z,100441.36
2019-06-08T03:36:46.132Z,100437.67
2019-06-08T03:41:43.184Z,100444.70
2019-06-08T03:46:46.444Z,100480.09
2019-06-08T03:51:49.083Z,100481.41
2019-06-08T03:56:51.532Z,100481.79
2019-06-08T04:01:53.564Z,100502.08
2019-06-08T04:06:55.630Z,100493.89
2019-06-08T04:11:57.672Z,100513.08
2019-06-08T04:16:59.734Z,100518.30
2019-06-08T04:22:01.830Z,100542.81
2019-06-08T04:27:03.833Z,100549.92
2019-06-08T04:32:05.887Z,100561.53
2019-06-08T04:37:07.946Z,100547.23
2019-06-08T04:42:10.043Z,100553.09
2019-06-08T04:47:12.125Z,100559.80
2019-06-08T04:52:14.219Z,100560.92
2019-06-08T04:57:16.288Z,100583.84
2019-06-08T05:02:18.376Z,100574.14
2019-06-08T05:07:20.486Z,100574.91
2019-06-08T05:12:22.530Z,100602.72
2019-06-08T05:17:24.602Z,100608.29
2019-06-08T05:22:26.621Z,100562.95
2019-06-08T05:27:28.693Z,100576.34
2019-06-08T05:32:30.803Z,100555.56
2019-06-08T05:37:32.856Z,100569.16
2019-06-08T05:42:34.912Z,100570.69
2019-06-08T05:47:36.984Z,100574.95
2019-06-08T05:52:39.863Z,100596.87
2019-06-08T05:57:42.174Z,100623.20
2019-06-08T06:02:44.778Z,100632.92
2019-06-08T06:07:47.125Z,100633.48
2019-06-08T06:12:49.195Z,100660.64
2019-06-08T06:17:51.654Z,100677.64
2019-06-08T06:22:53.857Z,100686.80
2019-06-08T06:27:55.955Z,100678.09
2019-06-08T06:32:57.876Z,100708.29
2019-06-08T06:37:59.953Z,100721.52
2019-06-08T06:43:02.105Z,100723.34
2019-06-08T06:48:04.263Z,100720.07
2019-06-08T06:53:06.295Z,100728.39
2019-06-08T06:58:08.510Z,100727.26
2019-06-08T07:03:11.343Z,100722.38
2019-06-08T07:08:13.378Z,100752.30
2019-06-08T07:13:15.422Z,100763.56
2019-06-08T07:18:17.470Z,100749.97
2019-06-08T07:23:19.566Z,100729.72
2019-06-08T07:28:21.847Z,100706.32
2019-06-08T07:33:23.873Z,100708.70
2019-06-08T07:38:25.900Z,100734.88
2019-06-08T07:43:27.916Z,100737.80
2019-06-08T07:48:29.981Z,100730.38
2019-06-08T07:53:32.046Z,100758.89
2019-06-08T07:58:34.105Z,100740.23
2019-06-08T08:03:36.191Z,100748.47
2019-06-08T08:08:38.273Z,100768.43
2019-06-08T08:13:40.338Z,100774.22
2019-06-08T08:18:42.426Z,100753.66
2019-06-08T08:23:44.484Z,100747.95
2019-06-08T08:28:50.025Z,100761.95
2019-06-08T08:33:52.530Z,100759.55
2019-06-08T08:38:55.947Z,100763.19
2019-06-08T08:44:02.787Z,100784.02
2019-06-08T08:49:09.436Z,100766.61
2019-06-08T08:54:08.499Z,100779.64
2019-06-08T08:59:10.830Z,100788.06
2019-06-08T09:04:13.058Z,100800.88
2019-06-08T09:09:15.150Z,100823.53
2019-06-08T09:14:18.436Z,100816.89
2019-06-08T09:19:21.496Z,100816.13
2019-06-08T09:24:23.553Z,100826.55
2019-06-08T09:29:25.588Z,100828.45
2019-06-08T09:34:28.281Z,100820.08
2019-06-08T09:39:30.490Z,100822.86
2019-06-08T09:44:32.552Z,100818.33
2019-06-08T09:49:34.591Z,100833.80
2019-06-08T09:54:38.468Z,100825.43
2019-06-08T09:59:40.727Z,100823.32
2019-06-08T10:04:42.806Z,100826.09
2019-06-08T10:09:44.878Z,100844.03
2019-06-08T10:14:49.008Z,100840.47
2019-06-08T10:19:50.897Z,100834.02
2019-06-08T10:24:52.916Z,100834.86
2019-06-08T10:29:55.269Z,100832.64
2019-06-08T10:34:59.999Z,100844.02
2019-06-08T10:40:05.440Z,100830.55
2019-06-08T10:45:12.479Z,100837.98
2019-06-08T10:50:15.392Z,100825.07
2019-06-08T10:55:18.003Z,100833.83
2019-06-08T11:00:23.978Z,100817.73
2019-06-08T11:05:28.051Z,100826.18
2019-06-08T11:10:32.327Z,100821.45
2019-06-08T11:15:34.429Z,100832.30
2019-06-08T11:20:38.215Z,100834.89
2019-06-08T11:25:40.450Z,100835.46
2019-06-08T11:30:43.727Z,100849.88
2019-06-08T11:35:45.989Z,100863.87
2019-06-08T11:40:48.063Z,100867.61
2019-06-08T11:45:50.095Z,100868.20
2019-06-08T11:50:52.224Z,100861.41
2019-06-08T11:55:55.120Z,100854.75
2019-06-08T12:01:03.475Z,100861.22
2019-06-08T12:06:08.584Z,100872.13
2019-06-08T12:11:15.881Z,100871.30
2019-06-08T12:16:18.058Z,100867.37
2019-06-08T12:21:18.530Z,100873.26
2019-06-08T12:26:20.852Z,100869.53
2019-06-08T12:31:23.068Z,100887.75
2019-06-08T12:36:25.325Z,100892.89
2019-06-08T12:41:28.861Z,100876.97
2019-06-08T12:46:31.407Z,100896.52
2019-06-08T12:51:33.423Z,100893.75
2019-06-08T12:56:37.643Z,100887.67
2019-06-08T13:01:39.567Z,100904.36
2019-06-08T13:06:41.630Z,100905.36
2019-06-08T13:11:43.645Z,100890.92
2019-06-08T13:16:45.704Z,100909.66
2019-06-08T13:21:48.736Z,100906.89
2019-06-08T13:26:51.018Z,100910.30
2019-06-08T13:31:53.106Z,100926.55
2019-06-08T13:36:55.159Z,100913.48
2019-06-08T13:41:57.221Z,100921.92
2019-06-08T13:46:59.380Z,100912.66
2019-06-08T13:52:01.447Z,100911.70
2019-06-08T13:57:03.582Z,100916.03
2019-06-08T14:02:05.668Z,100910.66
2019-06-08T14:07:07.948Z,100912.56
2019-06-08T14:12:10.453Z,100912.50
2019-06-08T14:17:12.524Z,100910.49
2019-06-08T14:22:14.669Z,100925.30
2019-06-08T14:27:17.123Z,100921.58
2019-06-08T14:32:20.749Z,100911.54
2019-06-08T14:37:23.430Z,100916.45
2019-06-08T14:42:29.670Z,100913.61
2019-06-08T14:47:30.377Z,100915.42
2019-06-08T14:52:32.763Z,100910.14
2019-06-08T14:57:37.472Z,100915.13
2019-06-08T15:02:38.953Z,100920.83
2019-06-08T15:07:40.999Z,100917.66
2019-06-08T15:12:43.077Z,100923.12
2019-06-08T15:17:47.754Z,100924.78
2019-06-08T15:22:49.913Z,100925.55
2019-06-08T15:27:52.073Z,100923.81
2019-06-08T15:32:58.677Z,100918.16
2019-06-08T15:38:00.528Z,100924.53
2019-06-08T15:43:02.649Z,100920.61
2019-06-08T15:48:04.736Z,100916.41
2019-06-08T15:53:08.447Z,100923.66
2019-06-08T15:58:10.775Z,100927.66
2019-06-08T16:03:12.800Z,100933.79
2019-06-08T16:08:14.857Z,100922.31
2019-06-08T16:13:16.915Z,100927.54
2019-06-08T16:18:19.005Z,100921.72
2019-06-08T16:23:21.081Z,100927.73
2019-06-08T16:28:23.162Z,100912.72
2019-06-08T16:33:25.338Z,100917.30
2019-06-08T16:38:27.923Z,100929.12
2019-06-08T16:43:31.060Z,100926.64
2019-06-08T16:48:34.587Z,100929.13
2019-06-08T16:53:36.837Z,100929.53
2019-06-08T16:58:38.992Z,100928.72
2019-06-08T17:03:41.604Z,100933.14
2019-06-08T17:08:43.892Z,100934.59
2019-06-08T17:13:45.968Z,100933.84
2019-06-08T17:18:48.018Z,100937.63
2019-06-08T17:23:50.112Z,100935.00
2019-06-08T17:28:52.532Z,100933.15
2019-06-08T17:33:54.678Z,100934.25
2019-06-08T17:38:57.094Z,100931.27
2019-06-08T17:43:59.169Z,100940.53
2019-06-08T17:49:01.231Z,100941.87
2019-06-08T17:54:03.284Z,100946.85
2019-06-08T17:59:05.607Z,100951.83
2019-06-08T18:04:08.283Z,100947.38
2019-06-08T18:09:10.291Z,100958.90
2019-06-08T18:14:13.058Z,100964.87
2019-06-08T18:19:28.368Z,100972.02
2019-06-08T18:24:30.464Z,100975.47
2019-06-08T18:29:32.582Z,100985.56
2019-06-08T18:34:35.324Z,100989.95
2019-06-08T18:39:41.718Z,100995.44
2019-06-08T18:44:43.996Z,100999.06
2019-06-08T18:49:48.890Z,101013.89
2019-06-08T18:54:51.175Z,101016.87
2019-06-08T18:59:53.336Z,101022.83
2019-06-08T19:04:57.378Z,101022.11
2019-06-08T19:10:02.301Z,101030.41
2019-06-08T19:15:05.237Z,101035.20
2019-06-08T19:20:07.433Z,101048.01
2019-06-08T19:25:09.719Z,101057.09
2019-06-08T19:30:11.840Z,101065.34
2019-06-08T19:35:13.980Z,101071.78
2019-06-08T19:40:17.651Z,101077.38
2019-06-08T19:45:20.008Z,101086.77
2019-06-08T19:50:22.116Z,101092.36
2019-06-08T19:55:24.166Z,101095.45
2019-06-08T20:00:28.282Z,101101.54
2019-06-08T20:05:30.189Z,101105.78
2019-06-08T20:10:32.222Z,101111.48
2019-06-08T20:15:34.280Z,101116.03
2019-06-08T20:20:38.146Z,101123.08
2019-06-08T20:25:41.097Z,101129.77
2019-06-08T20:30:44.287Z,101125.51
2019-06-08T20:35:48.519Z,101135.17
2019-06-08T20:40:50.484Z,101138.70
2019-06-08T20:45:53.473Z,101136.58
2019-06-08T20:50:57.242Z,101139.94
2019-06-08T20:55:59.567Z,101147.12
2019-06-08T21:01:01.639Z,101145.96
2019-06-08T21:06:03.806Z,101150.63
2019-06-08T21:11:08.320Z,101151.66
2019-06-08T21:16:09.820Z,101153.16
2019-06-08T21:21:11.870Z,101157.50
2019-06-08T21:26:13.908Z,101152.37
2019-06-08T21:31:17.729Z,101158.53
2019-06-08T21:36:19.982Z,101157.71
2019-06-08T21:41:22.032Z,101156.38
2019-06-08T21:46:24.072Z,101151.59
2019-06-08T21:51:26.331Z,101151.27
2019-06-08T21:56:28.457Z,101147.26
2019-06-08T22:01:31.469Z,101155.20
2019-06-08T22:06:33.527Z,101149.08
2019-06-08T22:11:37.614Z,101146.59
2019-06-08T22:16:39.905Z,101147.06
2019-06-08T22:21:41.934Z,101149.91
2019-06-08T22:26:44.078Z,101153.53
2019-06-08T22:31:47.904Z,101159.33
2019-06-08T22:36:50.257Z,101163.66
2019-06-08T22:41:53.431Z,101158.83
2019-06-08T22:46:58.432Z,101161.48
2019-06-08T22:52:01.010Z,101161.64
2019-06-08T22:57:04.833Z,101164.92
2019-06-08T23:02:09.106Z,101165.91
2019-06-08T23:07:25.869Z,101168.05
2019-06-08T23:12:14.991Z,101174.53
2019-06-08T23:17:17.858Z,101177.19
2019-06-08T23:22:20.018Z,101177.66
2019-06-08T23:27:22.026Z,101175.16
2019-06-08T23:32:24.053Z,101176.14
2019-06-08T23:37:27.710Z,101173.16
2019-06-08T23:42:29.900Z,101165.91
2019-06-08T23:47:31.944Z,101169.62
2019-06-08T23:52:34.067Z,101179.34
2019-06-08T23:57:38.004Z,101183.91
